createdAt,value
2023-12-12T00:00:41.322Z,24.03
2023-12-12T00:03:08.438Z,23.43
2023-12-12T00:05:35.659Z,19.93
2023-12-12T00:08:04.323Z,20.20
2023-12-12T00:10:31.490Z,19.70
2023-12-12T00:12:58.653Z,20.17
2023-12-12T00:15:25.879Z,19.77
2023-12-12T00:17:53.029Z,21.97
2023-12-12T00:20:20.142Z,19.27
2023-12-12T00:22:47.223Z,21.90
2023-12-12T00:25:15.817Z,21.57
2023-12-12T00:27:42.915Z,21.37
2023-12-12T00:30:10.324Z,24.37
2023-12-12T00:32:37.408Z,24.00
2023-12-12T00:35:04.954Z,25.90
2023-12-12T00:37:32.522Z,23.83
2023-12-12T00:39:59.899Z,27.63
2023-12-12T00:42:28.326Z,22.77
2023-12-12T00:44:55.482Z,24.03
2023-12-12T00:47:22.581Z,25.53
2023-12-12T00:49:49.750Z,25.30
2023-12-12T00:52:16.863Z,22.70
2023-12-12T00:54:44.006Z,24.87
2023-12-12T00:57:11.077Z,24.60
2023-12-12T00:59:39.508Z,24.50
2023-12-12T01:02:06.578Z,25.77
2023-12-12T01:04:34.003Z,23.93
2023-12-12T01:07:01.241Z,25.00
2023-12-12T01:09:28.739Z,23.53
2023-12-12T01:11:55.812Z,22.20
2023-12-12T01:14:22.897Z,22.40
2023-12-12T01:16:51.389Z,28.87
2023-12-12T01:19:18.577Z,27.97
2023-12-12T01:21:45.717Z,25.97
2023-12-12T01:24:12.821Z,28.97
2023-12-12T01:26:39.877Z,25.83
2023-12-12T01:29:07.020Z,23.77
2023-12-12T01:31:34.191Z,25.83
2023-12-12T01:34:02.799Z,25.33
2023-12-12T01:36:29.936Z,27.93
2023-12-12T01:38:56.972Z,27.57
2023-12-12T01:41:24.254Z,25.17
2023-12-12T01:43:51.339Z,30.10
2023-12-12T01:46:20.813Z,29.33
2023-12-12T01:48:49.118Z,27.87
2023-12-12T01:51:17.894Z,30.10
2023-12-12T01:53:47.997Z,29.83
2023-12-12T01:56:16.511Z,24.03
2023-12-12T01:58:46.423Z,28.00
2023-12-12T02:01:14.420Z,22.53
2023-12-12T02:03:42.159Z,23.37
2023-12-12T02:06:12.965Z,20.00
2023-12-12T02:08:42.470Z,22.23
2023-12-12T02:11:09.740Z,21.83
2023-12-12T02:13:37.010Z,27.20
2023-12-12T02:16:04.788Z,25.50
2023-12-12T02:18:32.172Z,26.10
2023-12-12T02:20:59.381Z,24.67
2023-12-12T02:23:28.164Z,24.07
2023-12-12T02:25:55.750Z,26.63
2023-12-12T02:28:23.116Z,25.53
2023-12-12T02:30:50.648Z,23.40
2023-12-12T02:33:18.161Z,28.40
2023-12-12T02:35:45.298Z,25.90
2023-12-12T02:38:12.359Z,23.93
2023-12-12T02:40:41.297Z,24.93
2023-12-12T02:43:08.468Z,22.70
2023-12-12T02:45:35.779Z,23.33
2023-12-12T02:48:03.429Z,23.67
2023-12-12T02:50:30.534Z,23.30
2023-12-12T02:52:57.654Z,19.00
2023-12-12T02:55:24.767Z,23.70
2023-12-12T02:57:53.296Z,20.63
2023-12-12T03:00:20.717Z,22.80
2023-12-12T03:02:47.796Z,24.70
2023-12-12T03:05:15.024Z,24.73
2023-12-12T03:07:42.212Z,24.10
2023-12-12T03:10:09.608Z,24.47
2023-12-12T03:12:36.782Z,22.63
2023-12-12T03:15:06.257Z,22.73
2023-12-12T03:17:33.772Z,25.50
2023-12-12T03:20:01.315Z,25.57
2023-12-12T03:22:28.946Z,22.73
2023-12-12T03:24:56.128Z,23.17
2023-12-12T03:27:23.240Z,23.07
2023-12-12T03:29:50.292Z,25.47
2023-12-12T03:32:18.774Z,21.67
2023-12-12T03:34:45.891Z,21.53
2023-12-12T03:37:14.525Z,20.70
2023-12-12T03:39:41.644Z,22.50
2023-12-12T03:42:08.714Z,21.23
2023-12-12T03:44:35.803Z,25.03
2023-12-12T03:47:02.842Z,19.37
2023-12-12T03:49:31.926Z,22.10
2023-12-12T03:51:59.231Z,20.33
2023-12-12T03:54:26.340Z,18.03
2023-12-12T03:56:53.413Z,20.90
2023-12-12T03:59:20.525Z,19.57
2023-12-12T04:01:51.163Z,19.67
2023-12-12T04:04:18.744Z,25.73
2023-12-12T04:06:48.037Z,25.63
2023-12-12T04:09:15.539Z,24.80
2023-12-12T04:11:42.642Z,26.63
2023-12-12T04:14:09.880Z,22.23
2023-12-12T04:16:37.022Z,23.67
2023-12-12T04:19:04.262Z,24.77
2023-12-12T04:21:31.772Z,23.10
2023-12-12T04:24:00.493Z,22.47
2023-12-12T04:26:30.083Z,19.70
2023-12-12T04:28:57.158Z,20.37
2023-12-12T04:31:24.336Z,21.23
2023-12-12T04:33:51.541Z,24.57
2023-12-12T04:36:18.724Z,24.23
2023-12-12T04:38:45.807Z,21.70
2023-12-12T04:41:14.308Z,21.27
2023-12-12T04:43:42.457Z,21.67
2023-12-12T04:46:09.578Z,22.53
2023-12-12T04:48:36.744Z,21.40
2023-12-12T04:51:04.033Z,21.60
2023-12-12T04:53:31.310Z,20.97
2023-12-12T04:55:58.387Z,27.37
2023-12-12T04:58:26.989Z,24.17
2023-12-12T05:00:54.151Z,26.83
2023-12-12T05:03:21.288Z,23.87
2023-12-12T05:05:49.459Z,25.63
2023-12-12T05:08:16.615Z,22.80
2023-12-12T05:10:43.790Z,28.00
2023-12-12T05:13:11.017Z,22.83
2023-12-12T05:15:39.496Z,21.77
2023-12-12T05:18:06.626Z,21.77
2023-12-12T05:20:33.873Z,23.17
2023-12-12T05:23:01.111Z,28.20
2023-12-12T05:25:28.287Z,25.77
2023-12-12T05:27:55.434Z,26.27
2023-12-12T05:30:22.596Z,27.77
2023-12-12T05:32:51.623Z,26.50
2023-12-12T05:35:18.826Z,25.23
2023-12-12T05:37:46.008Z,22.17
2023-12-12T05:40:13.307Z,22.93
2023-12-12T05:42:40.388Z,22.00
2023-12-12T05:45:08.777Z,24.10
2023-12-12T05:47:36.399Z,22.50
2023-12-12T05:50:06.239Z,28.30
2023-12-12T05:52:33.623Z,24.57
2023-12-12T05:55:01.212Z,24.73
2023-12-12T05:57:28.602Z,28.67
2023-12-12T05:59:55.838Z,28.47
2023-12-12T06:02:22.985Z,28.00
2023-12-12T06:04:50.374Z,29.53
2023-12-12T06:07:19.073Z,28.47
2023-12-12T06:09:46.218Z,26.47
2023-12-12T06:12:13.386Z,14.70
2023-12-12T06:14:40.456Z,29.20
2023-12-12T06:17:07.527Z,33.80
2023-12-12T06:19:34.639Z,28.07
2023-12-12T06:22:01.779Z,25.97
2023-12-12T06:24:30.406Z,21.27
2023-12-12T06:26:57.523Z,20.63
2023-12-12T06:29:24.664Z,18.77
2023-12-12T06:31:51.785Z,20.97
2023-12-12T06:34:19.105Z,23.23
2023-12-12T06:36:46.337Z,22.67
2023-12-12T06:39:13.437Z,27.97
2023-12-12T06:41:41.980Z,24.37
2023-12-12T06:44:09.091Z,25.57
2023-12-12T06:46:36.254Z,24.30
2023-12-12T06:49:05.263Z,28.87
2023-12-12T06:51:32.882Z,20.80
2023-12-12T06:54:00.286Z,26.93
2023-12-12T06:56:27.659Z,25.10
2023-12-12T06:58:56.139Z,23.77
2023-12-12T07:01:23.386Z,24.43
2023-12-12T07:03:50.593Z,21.23
2023-12-12T07:06:17.885Z,20.50
2023-12-12T07:08:47.135Z,24.57
2023-12-12T07:11:16.256Z,21.80
2023-12-12T07:13:43.345Z,21.27
2023-12-12T07:16:11.926Z,25.90
2023-12-12T07:18:39.671Z,22.00
2023-12-12T07:21:07.617Z,25.70
2023-12-12T07:23:34.959Z,21.20
2023-12-12T07:26:02.055Z,23.03
2023-12-12T07:28:29.336Z,23.60
2023-12-12T07:30:56.835Z,22.40
2023-12-12T07:33:25.576Z,22.00
2023-12-12T07:35:52.911Z,21.67
2023-12-12T07:38:20.005Z,22.03
2023-12-12T07:40:47.208Z,25.67
2023-12-12T07:43:14.454Z,23.97
2023-12-12T07:45:41.651Z,23.77
2023-12-12T07:48:08.844Z,27.60
2023-12-12T07:50:37.389Z,27.43
2023-12-12T07:53:04.486Z,23.90
2023-12-12T07:55:31.714Z,22.40
2023-12-12T07:57:58.841Z,22.87
2023-12-12T08:00:25.933Z,21.87
2023-12-12T08:02:53.104Z,21.43
2023-12-12T08:05:20.177Z,27.60
2023-12-12T08:07:48.690Z,24.57
2023-12-12T08:10:15.932Z,27.50
2023-12-12T08:12:43.700Z,25.83
2023-12-12T08:15:11.097Z,26.57
2023-12-12T08:17:38.358Z,24.47
2023-12-12T08:20:07.812Z,27.97
2023-12-12T08:22:35.377Z,26.37
2023-12-12T08:25:04.223Z,32.80
2023-12-12T08:27:31.839Z,30.40
2023-12-12T08:29:59.086Z,26.70
2023-12-12T08:32:26.231Z,27.40
2023-12-12T08:34:53.427Z,26.33
2023-12-12T08:37:20.573Z,30.13
2023-12-12T08:39:47.839Z,25.83
2023-12-12T08:42:16.356Z,29.20
2023-12-12T08:44:43.594Z,31.10
2023-12-12T08:47:10.721Z,28.30
2023-12-12T08:49:37.987Z,27.00
2023-12-12T08:52:06.172Z,23.97
2023-12-12T08:54:33.562Z,23.17
2023-12-12T08:57:00.738Z,24.73
2023-12-12T08:59:29.258Z,27.30
2023-12-12T09:01:56.748Z,28.03
2023-12-12T09:04:23.952Z,29.30
2023-12-12T09:06:51.165Z,31.57
2023-12-12T09:09:18.304Z,25.53
2023-12-12T09:11:46.653Z,20.73
2023-12-12T09:14:13.805Z,22.57
2023-12-12T09:16:42.323Z,22.93
2023-12-12T09:19:09.579Z,25.13
2023-12-12T09:21:36.923Z,23.53
2023-12-12T09:24:05.143Z,20.93
2023-12-12T09:26:33.013Z,22.73
2023-12-12T09:29:00.230Z,22.67
2023-12-12T09:31:28.348Z,26.00
2023-12-12T09:33:57.228Z,22.67
2023-12-12T09:36:24.476Z,21.90
2023-12-12T09:38:51.679Z,24.03
2023-12-12T09:41:22.593Z,22.50
2023-12-12T09:43:51.042Z,20.40
2023-12-12T09:46:19.136Z,23.20
2023-12-12T09:48:48.008Z,22.10
2023-12-12T09:51:16.807Z,23.13
2023-12-12T09:53:45.072Z,21.30
2023-12-12T09:56:14.195Z,25.20
2023-12-12T09:58:41.385Z,24.03
2023-12-12T10:01:09.722Z,26.43
2023-12-12T10:03:38.570Z,21.87
2023-12-12T10:06:09.326Z,19.00
2023-12-12T10:08:38.590Z,24.30
2023-12-12T10:11:07.414Z,21.37
2023-12-12T10:13:47.908Z,18.47
2023-12-12T10:16:15.235Z,20.90
2023-12-12T10:18:43.850Z,26.13
2023-12-12T10:21:15.602Z,25.17
2023-12-12T10:23:45.901Z,23.77
2023-12-12T10:26:13.738Z,21.77
2023-12-12T10:28:41.143Z,21.90
2023-12-12T10:31:08.555Z,23.47
2023-12-12T10:33:36.086Z,22.77
2023-12-12T10:36:03.577Z,26.17
2023-12-12T10:38:30.716Z,23.80
2023-12-12T10:41:12.761Z,26.17
2023-12-12T10:43:40.688Z,24.70
2023-12-12T10:46:10.832Z,26.13
2023-12-12T10:48:43.020Z,20.07
2023-12-12T10:51:11.299Z,23.43
2023-12-12T10:53:38.758Z,26.63
2023-12-12T10:56:08.068Z,21.47
2023-12-12T10:58:39.110Z,22.90
2023-12-12T11:01:07.815Z,24.90
2023-12-12T11:03:36.056Z,19.53
2023-12-12T11:06:03.969Z,21.23
2023-12-12T11:08:31.456Z,18.90
2023-12-12T11:11:00.419Z,14.37
2023-12-12T11:13:30.798Z,15.40
2023-12-12T11:16:01.845Z,16.80
2023-12-12T11:18:29.790Z,18.27
2023-12-12T11:20:57.000Z,25.00
2023-12-12T11:23:52.011Z,19.73
2023-12-12T11:26:19.970Z,14.80
2023-12-12T11:28:48.607Z,14.57
2023-12-12T11:31:25.320Z,13.43
2023-12-12T11:34:10.150Z,13.00
2023-12-12T11:36:49.389Z,17.07
2023-12-12T11:39:23.400Z,13.40
2023-12-12T11:41:51.786Z,13.67
2023-12-12T11:44:19.697Z,11.07
2023-12-12T11:46:48.346Z,10.93
2023-12-12T11:49:19.709Z,11.47
2023-12-12T11:51:46.997Z,14.20
2023-12-12T11:54:23.130Z,13.47
2023-12-12T11:56:56.163Z,15.23
2023-12-12T11:59:24.149Z,13.20
2023-12-12T12:01:53.086Z,7.13
2023-12-12T12:04:20.549Z,8.10
2023-12-12T12:06:47.875Z,10.97
2023-12-12T12:09:15.306Z,8.70
2023-12-12T12:11:48.627Z,10.67
2023-12-12T12:14:16.309Z,9.47
2023-12-12T12:16:43.778Z,8.13
2023-12-12T12:19:32.299Z,11.57
2023-12-12T12:22:04.218Z,11.30
2023-12-12T12:24:31.565Z,13.27
2023-12-12T12:26:58.831Z,12.07
2023-12-12T12:29:26.331Z,9.33
2023-12-12T12:31:53.876Z,9.27
2023-12-12T12:34:22.213Z,9.80
2023-12-12T12:36:53.380Z,15.57
2023-12-12T12:39:22.035Z,15.80
2023-12-12T12:41:54.562Z,14.77
2023-12-12T12:44:21.705Z,7.00
2023-12-12T12:46:49.806Z,10.57
2023-12-12T12:49:17.225Z,8.60
2023-12-12T12:51:44.442Z,9.17
2023-12-12T12:54:12.998Z,10.50
2023-12-12T12:56:41.568Z,11.00
2023-12-12T12:59:08.681Z,11.57
2023-12-12T13:01:36.059Z,12.67
2023-12-12T13:04:03.306Z,12.80
2023-12-12T13:06:30.603Z,12.37
2023-12-12T13:08:57.741Z,10.67
2023-12-12T13:11:26.271Z,11.40
2023-12-12T13:13:53.473Z,11.23
2023-12-12T13:16:20.677Z,11.30
2023-12-12T13:18:47.912Z,8.43
2023-12-12T13:21:15.126Z,8.37
2023-12-12T13:23:42.195Z,5.80
2023-12-12T13:26:09.352Z,7.07
2023-12-12T13:28:37.819Z,5.70
2023-12-12T13:31:05.589Z,5.60
2023-12-12T13:33:32.895Z,6.67
2023-12-12T13:36:00.272Z,10.83
2023-12-12T13:38:27.402Z,9.87
2023-12-12T13:40:54.546Z,10.27
2023-12-12T13:43:21.709Z,9.03
2023-12-12T13:45:52.126Z,9.23
2023-12-12T13:48:19.941Z,8.60
2023-12-12T13:50:47.188Z,8.73
2023-12-12T13:53:14.348Z,6.33
2023-12-12T13:55:41.605Z,6.17
2023-12-12T13:58:08.718Z,9.43
2023-12-12T14:00:36.048Z,6.17
2023-12-12T14:03:04.669Z,6.83
2023-12-12T14:05:31.924Z,4.43
2023-12-12T14:07:59.212Z,5.00
2023-12-12T14:10:26.676Z,6.33
2023-12-12T14:12:53.843Z,6.77
2023-12-12T14:15:21.049Z,7.90
2023-12-12T14:17:48.277Z,7.67
2023-12-12T14:20:17.024Z,8.70
2023-12-12T14:22:44.920Z,7.47
2023-12-12T14:25:13.081Z,18.07
2023-12-12T14:27:40.170Z,25.67
2023-12-12T14:30:08.603Z,28.03
2023-12-12T14:32:36.118Z,21.57
2023-12-12T14:35:03.501Z,16.50
2023-12-12T14:37:32.045Z,19.63
2023-12-12T14:39:59.230Z,20.13
2023-12-12T14:42:26.380Z,15.33
2023-12-12T14:44:53.503Z,14.17
2023-12-12T14:47:23.370Z,15.53
2023-12-12T14:49:52.570Z,11.90
2023-12-12T14:52:20.197Z,16.03
2023-12-12T14:54:48.658Z,10.53
2023-12-12T14:57:20.621Z,10.47
2023-12-12T14:59:49.436Z,12.83
2023-12-12T15:02:16.831Z,11.97
2023-12-12T15:04:44.640Z,15.23
2023-12-12T15:07:11.927Z,15.67
2023-12-12T15:09:39.959Z,29.13
2023-12-12T15:12:08.885Z,24.90
2023-12-12T15:14:36.024Z,15.63
2023-12-12T15:17:04.550Z,15.23
2023-12-12T15:19:34.820Z,12.27
2023-12-12T15:22:01.975Z,12.20
2023-12-12T15:24:29.255Z,15.27
2023-12-12T15:26:56.472Z,16.77
2023-12-12T15:29:25.025Z,16.27
2023-12-12T15:31:52.539Z,18.27
2023-12-12T15:34:22.505Z,25.40
2023-12-12T15:36:49.864Z,26.23
2023-12-12T15:39:17.015Z,27.13
2023-12-12T15:41:47.231Z,23.07
2023-12-12T15:44:17.220Z,26.60
2023-12-12T15:46:45.821Z,24.90
2023-12-12T15:49:13.144Z,22.73
2023-12-12T15:51:40.377Z,23.70
2023-12-12T15:54:07.517Z,29.13
2023-12-12T15:56:34.623Z,21.43
2023-12-12T15:59:01.810Z,30.23
2023-12-12T16:01:29.117Z,41.93
2023-12-12T16:03:58.009Z,27.03
2023-12-12T16:06:25.126Z,23.33
2023-12-12T16:08:52.498Z,18.40
2023-12-12T16:11:22.842Z,15.03
2023-12-12T16:13:49.909Z,15.97
2023-12-12T16:16:17.145Z,16.90
2023-12-12T16:18:44.325Z,15.30
2023-12-12T16:21:12.837Z,15.43
2023-12-12T16:23:40.003Z,16.10
2023-12-12T16:26:07.426Z,15.87
2023-12-12T16:28:34.553Z,13.97
2023-12-12T16:31:04.103Z,15.20
2023-12-12T16:33:32.425Z,12.50
2023-12-12T16:35:59.946Z,13.90
2023-12-12T16:38:28.523Z,16.10
2023-12-12T16:40:55.951Z,12.93
2023-12-12T16:43:23.170Z,15.33
2023-12-12T16:45:54.785Z,17.27
2023-12-12T16:48:21.953Z,19.10
2023-12-12T16:50:58.270Z,18.23
2023-12-12T16:53:36.444Z,23.33
2023-12-12T16:56:08.557Z,26.33
2023-12-12T16:58:38.060Z,24.23
2023-12-12T17:01:06.765Z,22.27
2023-12-12T17:03:41.418Z,21.27
2023-12-12T17:06:23.591Z,22.30
2023-12-12T17:09:00.367Z,22.07
2023-12-12T17:11:27.528Z,19.10
2023-12-12T17:14:18.298Z,32.40
2023-12-12T17:16:47.383Z,49.23
2023-12-12T17:19:14.620Z,28.73
2023-12-12T17:21:46.228Z,22.77
2023-12-12T17:24:36.426Z,17.17
2023-12-12T17:27:06.827Z,16.93
2023-12-12T17:29:44.562Z,19.43
2023-12-12T17:32:11.845Z,17.87
2023-12-12T17:34:45.987Z,16.80
2023-12-12T17:37:13.560Z,15.97
2023-12-12T17:39:43.071Z,16.37
2023-12-12T17:42:13.213Z,15.20
2023-12-12T17:45:10.829Z,16.30
2023-12-12T17:47:38.514Z,20.13
2023-12-12T17:50:23.390Z,20.00
2023-12-12T17:52:50.673Z,16.57
2023-12-12T17:58:02.144Z,24.13
2023-12-12T18:00:33.186Z,23.00
2023-12-12T18:03:03.343Z,22.63
2023-12-12T18:05:55.433Z,19.20
2023-12-12T18:11:56.471Z,19.40
2023-12-12T18:14:23.589Z,18.03
2023-12-12T18:16:50.787Z,17.10
2023-12-12T18:19:55.346Z,19.30
2023-12-12T18:22:41.083Z,17.00
2023-12-12T18:25:09.313Z,21.47
2023-12-12T18:27:40.521Z,18.60
2023-12-12T18:30:14.744Z,22.50
2023-12-12T18:32:42.351Z,19.03
2023-12-12T18:35:09.946Z,21.90
2023-12-12T18:37:37.455Z,21.87
2023-12-12T18:40:06.264Z,19.90
2023-12-12T18:42:33.479Z,22.00
2023-12-12T18:45:01.926Z,20.23
2023-12-12T18:47:29.151Z,20.53
2023-12-12T18:49:56.333Z,20.10
2023-12-12T18:52:23.538Z,18.03
2023-12-12T18:54:50.636Z,19.60
2023-12-12T18:57:17.736Z,18.70
2023-12-12T18:59:44.839Z,17.77
2023-12-12T19:02:13.284Z,22.37
2023-12-12T19:04:40.470Z,20.47
2023-12-12T19:07:07.733Z,19.73
2023-12-12T19:09:34.974Z,19.77
2023-12-12T19:12:02.090Z,18.97
2023-12-12T19:14:29.152Z,18.83
2023-12-12T19:16:56.313Z,14.40
2023-12-12T19:19:25.483Z,12.93
2023-12-12T19:21:52.715Z,12.97
2023-12-12T19:24:19.772Z,15.70
2023-12-12T19:26:46.901Z,13.43
2023-12-12T19:29:14.061Z,15.53
2023-12-12T19:31:41.305Z,14.33
2023-12-12T19:34:08.519Z,16.13
2023-12-12T19:36:40.937Z,14.13
2023-12-12T19:39:08.415Z,15.50
2023-12-12T19:41:36.828Z,13.47
2023-12-12T19:44:04.140Z,16.43
2023-12-12T19:46:31.226Z,15.27
2023-12-12T19:48:58.326Z,13.33
2023-12-12T19:51:25.419Z,13.37
2023-12-12T19:53:53.916Z,14.63
2023-12-12T19:56:20.991Z,15.53
2023-12-12T19:58:48.166Z,16.00
2023-12-12T20:01:15.361Z,13.80
2023-12-12T20:03:42.652Z,19.30
2023-12-12T20:06:10.721Z,16.63
2023-12-12T20:08:37.925Z,14.77
2023-12-12T20:11:06.860Z,16.50
2023-12-12T20:13:34.026Z,15.60
2023-12-12T20:16:01.281Z,12.77
2023-12-12T20:18:28.487Z,14.63
2023-12-12T20:20:55.604Z,15.27
2023-12-12T20:23:22.703Z,17.87
2023-12-12T20:25:49.963Z,13.53
2023-12-12T20:28:18.602Z,13.73
2023-12-12T20:30:45.857Z,19.40
2023-12-12T20:33:13.142Z,16.80
2023-12-12T20:35:40.267Z,14.40
2023-12-12T20:38:07.439Z,18.73
2023-12-12T20:40:35.404Z,14.70
2023-12-12T20:43:02.578Z,17.37
2023-12-12T20:45:31.113Z,15.77
2023-12-12T20:47:58.410Z,17.13
2023-12-12T20:50:25.531Z,20.80
2023-12-12T20:52:52.680Z,16.13
2023-12-12T20:55:19.854Z,16.10
2023-12-12T20:57:46.951Z,20.53
2023-12-12T21:00:15.137Z,15.77
2023-12-12T21:02:43.634Z,18.73
2023-12-12T21:05:10.847Z,16.83
2023-12-12T21:07:38.122Z,14.10
2023-12-12T21:10:05.751Z,17.47
2023-12-12T21:12:32.963Z,14.40
2023-12-12T21:15:00.219Z,15.33
2023-12-12T21:17:27.296Z,13.80
2023-12-12T21:19:55.776Z,15.20
2023-12-12T21:22:23.014Z,16.73
2023-12-12T21:24:50.135Z,19.07
2023-12-12T21:27:17.354Z,16.73
2023-12-12T21:29:44.498Z,16.50
2023-12-12T21:32:11.564Z,18.43
2023-12-12T21:34:38.771Z,12.70
2023-12-12T21:37:07.331Z,18.60
2023-12-12T21:39:34.559Z,14.07
2023-12-12T21:42:01.677Z,14.90
2023-12-12T21:44:28.817Z,13.73
2023-12-12T21:46:56.006Z,11.93
2023-12-12T21:49:23.441Z,10.27
2023-12-12T21:51:50.936Z,9.27
2023-12-12T21:54:19.362Z,11.80
2023-12-12T21:56:46.547Z,13.23
2023-12-12T21:59:13.741Z,12.83
2023-12-12T22:01:41.028Z,13.83
2023-12-12T22:04:08.398Z,13.90
2023-12-12T22:06:38.112Z,12.07
2023-12-12T22:09:05.338Z,10.83
2023-12-12T22:11:34.354Z,14.43
2023-12-12T22:14:01.471Z,13.17
2023-12-12T22:16:30.100Z,12.33
2023-12-12T22:18:59.620Z,10.90
2023-12-12T22:21:28.532Z,10.80
2023-12-12T22:23:56.049Z,12.27
2023-12-12T22:26:23.278Z,12.30
2023-12-12T22:28:51.708Z,11.40
2023-12-12T22:31:18.822Z,10.67
2023-12-12T22:33:45.964Z,10.67
2023-12-12T22:36:17.726Z,11.77
2023-12-12T22:38:45.968Z,10.67
2023-12-12T22:41:13.694Z,11.10
2023-12-12T22:43:41.349Z,12.43
2023-12-12T22:46:10.338Z,10.07
2023-12-12T22:48:37.687Z,9.57
2023-12-12T22:51:05.667Z,10.73
2023-12-12T22:53:32.822Z,9.33
2023-12-12T22:56:00.561Z,9.17
2023-12-12T22:58:27.679Z,10.83
2023-12-12T23:00:54.914Z,9.23
2023-12-12T23:03:23.459Z,9.33
2023-12-12T23:05:51.084Z,9.30
2023-12-12T23:08:18.331Z,9.03
2023-12-12T23:10:45.458Z,8.50
2023-12-12T23:13:12.587Z,7.53
2023-12-12T23:15:40.336Z,8.20
2023-12-12T23:18:07.788Z,9.93
2023-12-12T23:20:36.281Z,9.80
2023-12-12T23:23:03.432Z,8.80
2023-12-12T23:25:30.512Z,10.87
2023-12-12T23:27:57.647Z,9.60
2023-12-12T23:30:24.826Z,8.63
2023-12-12T23:32:52.045Z,7.93
2023-12-12T23:35:19.330Z,8.40
2023-12-12T23:37:47.862Z,9.10
2023-12-12T23:40:15.091Z,8.57
2023-12-12T23:42:45.145Z,8.23
2023-12-12T23:45:13.989Z,9.13
2023-12-12T23:47:42.742Z,11.23
2023-12-12T23:50:10.513Z,10.57
2023-12-12T23:52:37.736Z,9.50
2023-12-12T23:55:07.702Z,10.43
2023-12-12T23:57:35.225Z,9.40
